sensor_id;sensor_type;location;lat;lon;timestamp;pressure;altitude;pressure_sealevel;temperature;humidity
11395;BME280;5753;54.402;10.220;2023-03-05T00:01:17;101595.66;;;8.57;43.76
11395;BME280;5753;54.402;10.220;2023-03-05T00:03:44;101583.50;;;9.26;42.83
11395;BME280;5753;54.402;10.220;2023-03-05T00:06:11;101591.78;;;8.68;43.59
11395;BME280;5753;54.402;10.220;2023-03-05T00:08:37;101582.13;;;8.87;42.75
11395;BME280;5753;54.402;10.220;2023-03-05T00:11:06;101573.91;;;8.97;42.36
11395;BME280;5753;54.402;10.220;2023-03-05T00:13:33;101576.59;;;9.25;42.71
11395;BME280;5753;54.402;10.220;2023-03-05T00:16:06;101579.22;;;9.01;43.29
11395;BME280;5753;54.402;10.220;2023-03-05T00:18:33;101587.84;;;8.32;44.12
11395;BME280;5753;54.402;10.220;2023-03-05T00:21:00;101578.72;;;9.11;42.48
11395;BME280;5753;54.402;10.220;2023-03-05T00:23:27;101569.72;;;9.78;40.45
11395;BME280;5753;54.402;10.220;2023-03-05T00:25:53;101558.94;;;10.20;40.95
11395;BME280;5753;54.402;10.220;2023-03-05T00:28:19;101560.72;;;10.21;41.25
11395;BME280;5753;54.402;10.220;2023-03-05T00:30:45;101555.31;;;9.04;42.13
11395;BME280;5753;54.402;10.220;2023-03-05T00:33:12;101567.88;;;8.25;44.66
11395;BME280;5753;54.402;10.220;2023-03-05T00:35:43;101562.78;;;8.72;42.75
11395;BME280;5753;54.402;10.220;2023-03-05T00:38:10;101558.88;;;8.83;42.99
11395;BME280;5753;54.402;10.220;2023-03-05T00:40:41;101555.72;;;8.91;42.72
11395;BME280;5753;54.402;10.220;2023-03-05T00:43:08;101562.34;;;8.84;43.13
11395;BME280;5753;54.402;10.220;2023-03-05T00:45:34;101558.94;;;8.85;43.32
11395;BME280;5753;54.402;10.220;2023-03-05T00:48:01;101556.78;;;8.48;43.33
11395;BME280;5753;54.402;10.220;2023-03-05T00:50:28;101541.75;;;9.08;42.34
11395;BME280;5753;54.402;10.220;2023-03-05T00:52:54;101544.28;;;9.60;41.71
11395;BME280;5753;54.402;10.220;2023-03-05T00:55:21;101549.75;;;8.92;42.25
11395;BME280;5753;54.402;10.220;2023-03-05T00:57:47;101546.22;;;9.40;41.20
11395;BME280;5753;54.402;10.220;2023-03-05T01:00:14;101537.56;;;10.22;40.00
11395;BME280;5753;54.402;10.220;2023-03-05T01:02:40;101536.56;;;9.33;41.48
11395;BME280;5753;54.402;10.220;2023-03-05T01:05:08;101537.41;;;8.56;42.91
11395;BME280;5753;54.402;10.220;2023-03-05T01:07:35;101534.94;;;9.10;42.91
11395;BME280;5753;54.402;10.220;2023-03-05T01:10:01;101527.28;;;8.61;43.46
11395;BME280;5753;54.402;10.220;2023-03-05T01:12:27;101518.84;;;9.15;42.80
11395;BME280;5753;54.402;10.220;2023-03-05T01:14:53;101526.19;;;8.32;44.34
11395;BME280;5753;54.402;10.220;2023-03-05T01:17:20;101509.16;;;9.91;40.99
11395;BME280;5753;54.402;10.220;2023-03-05T01:19:46;101520.19;;;7.85;44.52
11395;BME280;5753;54.402;10.220;2023-03-05T01:22:12;101503.81;;;7.59;45.34
11395;BME280;5753;54.402;10.220;2023-03-05T01:24:38;101512.47;;;6.99;46.50
11395;BME280;5753;54.402;10.220;2023-03-05T01:27:04;101510.69;;;8.29;43.64
11395;BME280;5753;54.402;10.220;2023-03-05T01:29:30;101516.19;;;8.15;44.56
11395;BME280;5753;54.402;10.220;2023-03-05T01:31:57;101509.47;;;8.92;42.75
11395;BME280;5753;54.402;10.220;2023-03-05T01:34:23;101510.34;;;7.73;44.43
11395;BME280;5753;54.402;10.220;2023-03-05T01:36:49;101501.69;;;8.40;43.90
11395;BME280;5753;54.402;10.220;2023-03-05T01:39:16;101503.78;;;9.01;41.98
11395;BME280;5753;54.402;10.220;2023-03-05T01:41:42;101511.50;;;8.75;43.37
11395;BME280;5753;54.402;10.220;2023-03-05T01:44:21;101504.53;;;8.47;42.83
11395;BME280;5753;54.402;10.220;2023-03-05T01:46:48;101506.50;;;8.55;42.97
11395;BME280;5753;54.402;10.220;2023-03-05T01:52:17;101499.69;;;8.33;43.86
11395;BME280;5753;54.402;10.220;2023-03-05T01:54:48;101505.69;;;8.56;41.97
11395;BME280;5753;54.402;10.220;2023-03-05T01:57:27;101502.41;;;7.67;44.31
11395;BME280;5753;54.402;10.220;2023-03-05T02:00:08;101500.16;;;8.45;42.94
11395;BME280;5753;54.402;10.220;2023-03-05T02:02:37;101497.50;;;8.93;41.73
11395;BME280;5753;54.402;10.220;2023-03-05T02:05:09;101486.53;;;8.24;43.95
11395;BME280;5753;54.402;10.220;2023-03-05T02:07:36;101491.50;;;8.43;43.44
11395;BME280;5753;54.402;10.220;2023-03-05T02:10:23;101495.31;;;7.39;44.25
11395;BME280;5753;54.402;10.220;2023-03-05T02:12:52;101488.41;;;7.81;43.60
11395;BME280;5753;54.402;10.220;2023-03-05T02:15:20;101486.91;;;9.09;42.33
11395;BME280;5753;54.402;10.220;2023-03-05T02:17:46;101480.22;;;9.14;41.94
11395;BME280;5753;54.402;10.220;2023-03-05T02:20:16;101486.22;;;9.41;41.00
11395;BME280;5753;54.402;10.220;2023-03-05T02:22:43;101473.63;;;8.46;43.28
11395;BME280;5753;54.402;10.220;2023-03-05T02:30:18;101461.66;;;7.99;43.47
11395;BME280;5753;54.402;10.220;2023-03-05T02:32:44;101458.81;;;9.15;41.66
11395;BME280;5753;54.402;10.220;2023-03-05T02:35:10;101460.38;;;8.34;43.90
11395;BME280;5753;54.402;10.220;2023-03-05T02:37:37;101455.50;;;8.92;42.95
11395;BME280;5753;54.402;10.220;2023-03-05T02:40:03;101459.16;;;8.99;42.22
11395;BME280;5753;54.402;10.220;2023-03-05T02:42:29;101457.09;;;7.45;45.37
11395;BME280;5753;54.402;10.220;2023-03-05T02:44:59;101451.91;;;8.12;43.75
11395;BME280;5753;54.402;10.220;2023-03-05T02:47:26;101454.66;;;8.66;42.18
11395;BME280;5753;54.402;10.220;2023-03-05T02:49:53;101446.78;;;9.42;41.38
11395;BME280;5753;54.402;10.220;2023-03-05T02:52:19;101445.06;;;8.61;42.86
11395;BME280;5753;54.402;10.220;2023-03-05T02:54:48;101447.06;;;8.45;42.44
11395;BME280;5753;54.402;10.220;2023-03-05T02:57:15;101434.69;;;9.97;40.23
11395;BME280;5753;54.402;10.220;2023-03-05T02:59:41;101434.84;;;9.16;41.88
11395;BME280;5753;54.402;10.220;2023-03-05T03:02:07;101431.72;;;9.26;41.59
11395;BME280;5753;54.402;10.220;2023-03-05T03:04:33;101423.88;;;9.50;40.37
11395;BME280;5753;54.402;10.220;2023-03-05T03:06:59;101429.09;;;7.98;43.78
11395;BME280;5753;54.402;10.220;2023-03-05T03:09:26;101431.66;;;7.98;43.29
11395;BME280;5753;54.402;10.220;2023-03-05T03:11:52;101413.16;;;8.54;42.94
11395;BME280;5753;54.402;10.220;2023-03-05T03:14:18;101418.78;;;8.44;42.65
11395;BME280;5753;54.402;10.220;2023-03-05T03:16:45;101420.53;;;8.21;44.65
11395;BME280;5753;54.402;10.220;2023-03-05T03:19:11;101419.06;;;8.51;42.61
11395;BME280;5753;54.402;10.220;2023-03-05T03:21:37;101414.16;;;8.86;42.60
11395;BME280;5753;54.402;10.220;2023-03-05T03:24:04;101422.06;;;8.65;42.34
11395;BME280;5753;54.402;10.220;2023-03-05T03:26:30;101416.38;;;9.01;42.63
11395;BME280;5753;54.402;10.220;2023-03-05T03:28:56;101405.78;;;9.77;41.13
11395;BME280;5753;54.402;10.220;2023-03-05T03:31:23;101396.06;;;9.67;40.79
11395;BME280;5753;54.402;10.220;2023-03-05T03:33:49;101396.88;;;9.66;41.28
11395;BME280;5753;54.402;10.220;2023-03-05T03:36:15;101398.34;;;9.56;40.88
11395;BME280;5753;54.402;10.220;2023-03-05T03:38:43;101401.69;;;9.25;42.20
11395;BME280;5753;54.402;10.220;2023-03-05T03:41:09;101395.16;;;9.36;41.66
11395;BME280;5753;54.402;10.220;2023-03-05T03:43:36;101390.66;;;9.29;41.75
11395;BME280;5753;54.402;10.220;2023-03-05T03:46:08;101391.50;;;8.47;43.79
11395;BME280;5753;54.402;10.220;2023-03-05T03:48:34;101386.69;;;8.57;43.34
11395;BME280;5753;54.402;10.220;2023-03-05T03:51:04;101382.09;;;8.48;42.94
11395;BME280;5753;54.402;10.220;2023-03-05T03:53:31;101384.25;;;8.36;44.12
11395;BME280;5753;54.402;10.220;2023-03-05T03:55:58;101379.56;;;9.02;43.29
11395;BME280;5753;54.402;10.220;2023-03-05T03:58:24;101382.41;;;8.57;43.45
11395;BME280;5753;54.402;10.220;2023-03-05T04:00:50;101375.59;;;9.13;42.23
11395;BME280;5753;54.402;10.220;2023-03-05T04:03:16;101371.97;;;9.35;41.95
11395;BME280;5753;54.402;10.220;2023-03-05T04:05:43;101371.34;;;8.87;42.71
11395;BME280;5753;54.402;10.220;2023-03-05T04:08:09;101360.88;;;9.07;42.60
11395;BME280;5753;54.402;10.220;2023-03-05T04:10:38;101358.78;;;9.24;41.35
11395;BME280;5753;54.402;10.220;2023-03-05T04:13:07;101361.84;;;8.84;43.07
11395;BME280;5753;54.402;10.220;2023-03-05T04:15:33;101360.59;;;8.71;42.63
11395;BME280;5753;54.402;10.220;2023-03-05T04:17:59;101357.19;;;8.72;43.66
11395;BME280;5753;54.402;10.220;2023-03-05T04:20:26;101353.69;;;10.19;40.78
11395;BME280;5753;54.402;10.220;2023-03-05T04:22:52;101354.19;;;8.86;42.17
11395;BME280;5753;54.402;10.220;2023-03-05T04:25:18;101351.72;;;9.17;42.18
11395;BME280;5753;54.402;10.220;2023-03-05T04:27:44;101343.94;;;8.87;42.55
11395;BME280;5753;54.402;10.220;2023-03-05T04:30:12;101339.13;;;7.93;43.99
11395;BME280;5753;54.402;10.220;2023-03-05T04:32:42;101340.88;;;9.27;42.26
11395;BME280;5753;54.402;10.220;2023-03-05T04:35:09;101335.34;;;9.13;42.22
11395;BME280;5753;54.402;10.220;2023-03-05T04:37:35;101337.53;;;9.60;41.97
11395;BME280;5753;54.402;10.220;2023-03-05T04:40:01;101336.03;;;9.08;42.34
11395;BME280;5753;54.402;10.220;2023-03-05T04:42:28;101342.78;;;8.77;43.02
11395;BME280;5753;54.402;10.220;2023-03-05T04:44:54;101340.78;;;9.24;43.22
11395;BME280;5753;54.402;10.220;2023-03-05T04:47:20;101337.19;;;10.10;41.30
11395;BME280;5753;54.402;10.220;2023-03-05T04:49:46;101339.25;;;10.24;40.83
11395;BME280;5753;54.402;10.220;2023-03-05T04:52:13;101326.28;;;9.89;42.28
11395;BME280;5753;54.402;10.220;2023-03-05T04:54:39;101344.28;;;8.44;45.99
11395;BME280;5753;54.402;10.220;2023-03-05T04:57:06;101332.19;;;8.67;45.99
11395;BME280;5753;54.402;10.220;2023-03-05T04:59:32;101336.72;;;8.75;46.04
11395;BME280;5753;54.402;10.220;2023-03-05T05:01:59;101329.13;;;9.67;44.78
11395;BME280;5753;54.402;10.220;2023-03-05T05:04:25;101326.56;;;9.98;43.74
11395;BME280;5753;54.402;10.220;2023-03-05T05:06:57;101322.16;;;9.63;44.78
11395;BME280;5753;54.402;10.220;2023-03-05T05:09:24;101313.94;;;9.76;45.14
11395;BME280;5753;54.402;10.220;2023-03-05T05:11:51;101331.63;;;8.50;47.39
11395;BME280;5753;54.402;10.220;2023-03-05T05:14:17;101317.16;;;9.37;46.61
11395;BME280;5753;54.402;10.220;2023-03-05T05:16:43;101324.25;;;8.88;48.04
11395;BME280;5753;54.402;10.220;2023-03-05T05:19:10;101319.03;;;9.13;47.16
11395;BME280;5753;54.402;10.220;2023-03-05T05:21:36;101315.69;;;10.10;45.56
11395;BME280;5753;54.402;10.220;2023-03-05T05:24:02;101315.81;;;10.15;45.00
11395;BME280;5753;54.402;10.220;2023-03-05T05:26:29;101315.56;;;8.84;48.30
11395;BME280;5753;54.402;10.220;2023-03-05T05:28:55;101304.13;;;9.31;46.92
11395;BME280;5753;54.402;10.220;2023-03-05T05:31:21;101311.19;;;9.38;46.65
11395;BME280;5753;54.402;10.220;2023-03-05T05:33:47;101302.66;;;9.41;46.73
11395;BME280;5753;54.402;10.220;2023-03-05T05:36:15;101295.19;;;9.49;46.23
11395;BME280;5753;54.402;10.220;2023-03-05T05:38:44;101304.59;;;9.18;46.88
11395;BME280;5753;54.402;10.220;2023-03-05T05:41:16;101299.69;;;9.26;46.99
11395;BME280;5753;54.402;10.220;2023-03-05T05:43:43;101294.03;;;10.02;44.98
11395;BME280;5753;54.402;10.220;2023-03-05T05:46:15;101303.78;;;8.91;47.75
11395;BME280;5753;54.402;10.220;2023-03-05T05:48:42;101288.97;;;8.54;48.64
11395;BME280;5753;54.402;10.220;2023-03-05T05:51:17;101294.81;;;9.05;47.77
11395;BME280;5753;54.402;10.220;2023-03-05T05:53:43;101294.94;;;8.81;47.47
11395;BME280;5753;54.402;10.220;2023-03-05T05:56:11;101293.69;;;8.97;47.29
11395;BME280;5753;54.402;10.220;2023-03-05T05:58:39;101296.09;;;7.86;49.84
11395;BME280;5753;54.402;10.220;2023-03-05T06:03:51;101286.34;;;9.09;47.33
11395;BME280;5753;54.402;10.220;2023-03-05T06:06:19;101294.31;;;8.90;48.18
11395;BME280;5753;54.402;10.220;2023-03-05T06:08:46;101293.09;;;8.50;48.14
11395;BME280;5753;54.402;10.220;2023-03-05T06:11:21;101295.84;;;8.04;50.12
11395;BME280;5753;54.402;10.220;2023-03-05T06:13:48;101295.63;;;9.04;46.91
11395;BME280;5753;54.402;10.220;2023-03-05T06:16:17;101296.81;;;9.15;47.15
11395;BME280;5753;54.402;10.220;2023-03-05T06:18:44;101293.41;;;8.88;47.70
11395;BME280;5753;54.402;10.220;2023-03-05T06:21:13;101307.34;;;8.40;49.81
11395;BME280;5753;54.402;10.220;2023-03-05T06:23:40;101302.88;;;8.60;48.75
11395;BME280;5753;54.402;10.220;2023-03-05T06:26:07;101301.75;;;9.69;46.29
11395;BME280;5753;54.402;10.220;2023-03-05T06:28:34;101301.41;;;9.57;46.68
11395;BME280;5753;54.402;10.220;2023-03-05T06:31:06;101301.75;;;9.69;46.52
11395;BME280;5753;54.402;10.220;2023-03-05T06:33:33;101304.47;;;9.43;46.73
11395;BME280;5753;54.402;10.220;2023-03-05T06:36:03;101304.28;;;9.37;46.92
11395;BME280;5753;54.402;10.220;2023-03-05T06:38:30;101302.84;;;9.78;45.96
11395;BME280;5753;54.402;10.220;2023-03-05T06:41:03;101303.78;;;9.19;46.75
11395;BME280;5753;54.402;10.220;2023-03-05T06:43:31;101311.25;;;8.83;47.85
11395;BME280;5753;54.402;10.220;2023-03-05T06:46:23;101305.53;;;10.16;44.93
11395;BME280;5753;54.402;10.220;2023-03-05T06:48:48;101308.56;;;9.07;46.89
11395;BME280;5753;54.402;10.220;2023-03-05T06:51:21;101300.94;;;8.81;48.05
11395;BME280;5753;54.402;10.220;2023-03-05T06:53:48;101300.06;;;8.81;47.80
11395;BME280;5753;54.402;10.220;2023-03-05T06:56:15;101308.06;;;7.14;50.62
11395;BME280;5753;54.402;10.220;2023-03-05T06:58:43;101303.81;;;8.11;48.91
11395;BME280;5753;54.402;10.220;2023-03-05T07:01:10;101311.22;;;8.81;47.58
11395;BME280;5753;54.402;10.220;2023-03-05T07:03:37;101313.25;;;7.87;49.07
11395;BME280;5753;54.402;10.220;2023-03-05T07:06:06;101303.13;;;9.26;46.79
11395;BME280;5753;54.402;10.220;2023-03-05T07:08:32;101304.78;;;8.67;46.94
11395;BME280;5753;54.402;10.220;2023-03-05T07:10:59;101301.41;;;8.68;47.14
11395;BME280;5753;54.402;10.220;2023-03-05T07:13:26;101296.59;;;9.69;45.22
11395;BME280;5753;54.402;10.220;2023-03-05T07:15:52;101291.25;;;10.27;44.01
11395;BME280;5753;54.402;10.220;2023-03-05T07:18:18;101299.19;;;9.09;45.73
11395;BME280;5753;54.402;10.220;2023-03-05T07:20:45;101297.47;;;9.08;45.89
11395;BME280;5753;54.402;10.220;2023-03-05T07:23:11;101295.41;;;9.26;45.09
11395;BME280;5753;54.402;10.220;2023-03-05T07:25:38;101296.13;;;8.92;45.42
11395;BME280;5753;54.402;10.220;2023-03-05T07:28:05;101289.38;;;9.56;44.73
11395;BME280;5753;54.402;10.220;2023-03-05T07:30:32;101289.22;;;9.20;44.86
11395;BME280;5753;54.402;10.220;2023-03-05T07:32:59;101295.75;;;9.08;44.13
11395;BME280;5753;54.402;10.220;2023-03-05T07:35:25;101286.88;;;9.92;42.85
11395;BME280;5753;54.402;10.220;2023-03-05T07:37:52;101279.69;;;8.87;43.25
11395;BME280;5753;54.402;10.220;2023-03-05T07:40:20;101290.16;;;8.93;42.24
11395;BME280;5753;54.402;10.220;2023-03-05T07:42:47;101296.81;;;8.58;42.03
11395;BME280;5753;54.402;10.220;2023-03-05T07:45:13;101288.59;;;8.17;43.81
11395;BME280;5753;54.402;10.220;2023-03-05T07:47:39;101282.47;;;8.95;40.88
11395;BME280;5753;54.402;10.220;2023-03-05T07:50:06;101279.47;;;9.08;39.49
11395;BME280;5753;54.402;10.220;2023-03-05T07:52:32;101279.81;;;8.92;40.63
11395;BME280;5753;54.402;10.220;2023-03-05T07:54:58;101282.53;;;8.41;40.94
11395;BME280;5753;54.402;10.220;2023-03-05T07:57:24;101279.94;;;7.88;41.99
11395;BME280;5753;54.402;10.220;2023-03-05T07:59:50;101282.66;;;8.99;40.76
11395;BME280;5753;54.402;10.220;2023-03-05T08:02:17;101284.47;;;10.31;38.19
11395;BME280;5753;54.402;10.220;2023-03-05T08:04:44;101291.19;;;8.17;40.35
11395;BME280;5753;54.402;10.220;2023-03-05T08:07:16;101286.63;;;8.09;41.43
11395;BME280;5753;54.402;10.220;2023-03-05T08:09:42;101288.13;;;8.29;40.67
11395;BME280;5753;54.402;10.220;2023-03-05T08:12:09;101284.06;;;8.09;41.29
11395;BME280;5753;54.402;10.220;2023-03-05T08:14:35;101278.81;;;8.87;40.16
11395;BME280;5753;54.402;10.220;2023-03-05T08:17:03;101273.28;;;9.63;39.67
11395;BME280;5753;54.402;10.220;2023-03-05T08:19:30;101280.66;;;9.51;38.31
11395;BME280;5753;54.402;10.220;2023-03-05T08:21:56;101279.63;;;9.14;38.04
11395;BME280;5753;54.402;10.220;2023-03-05T08:24:23;101269.94;;;9.35;39.10
11395;BME280;5753;54.402;10.220;2023-03-05T08:26:55;101272.81;;;10.12;37.44
11395;BME280;5753;54.402;10.220;2023-03-05T08:29:22;101271.38;;;10.22;37.68
11395;BME280;5753;54.402;10.220;2023-03-05T08:31:48;101272.41;;;10.66;36.76
11395;BME280;5753;54.402;10.220;2023-03-05T08:34:16;101271.09;;;9.78;37.98
11395;BME280;5753;54.402;10.220;2023-03-05T08:36:42;101275.16;;;10.37;36.84
11395;BME280;5753;54.402;10.220;2023-03-05T08:39:08;101274.50;;;10.45;37.02
11395;BME280;5753;54.402;10.220;2023-03-05T08:41:35;101266.66;;;10.05;37.33
11395;BME280;5753;54.402;10.220;2023-03-05T08:44:01;101263.50;;;9.50;37.09
11395;BME280;5753;54.402;10.220;2023-03-05T08:46:28;101258.38;;;9.84;36.41
11395;BME280;5753;54.402;10.220;2023-03-05T08:48:55;101261.47;;;10.78;35.25
11395;BME280;5753;54.402;10.220;2023-03-05T08:51:23;101263.97;;;10.01;37.80
11395;BME280;5753;54.402;10.220;2023-03-05T08:53:54;101263.50;;;9.50;37.20
11395;BME280;5753;54.402;10.220;2023-03-05T08:56:20;101265.47;;;9.60;37.47
11395;BME280;5753;54.402;10.220;2023-03-05T08:58:47;101253.06;;;9.78;36.80
11395;BME280;5753;54.402;10.220;2023-03-05T09:01:14;101256.75;;;9.88;37.40
11395;BME280;5753;54.402;10.220;2023-03-05T09:03:40;101249.63;;;10.86;35.46
11395;BME280;5753;54.402;10.220;2023-03-05T09:06:09;101245.31;;;10.85;36.32
11395;BME280;5753;54.402;10.220;2023-03-05T09:08:37;101243.88;;;11.86;35.76
11395;BME280;5753;54.402;10.220;2023-03-05T09:11:05;101250.75;;;11.41;35.73
11395;BME280;5753;54.402;10.220;2023-03-05T09:13:32;101243.16;;;11.04;34.84
11395;BME280;5753;54.402;10.220;2023-03-05T09:16:04;101245.84;;;9.96;38.28
11395;BME280;5753;54.402;10.220;2023-03-05T09:18:31;101238.97;;;11.55;35.57
11395;BME280;5753;54.402;10.220;2023-03-05T09:20:59;101233.47;;;11.37;35.23
11395;BME280;5753;54.402;10.220;2023-03-05T09:23:28;101231.47;;;11.22;35.09
11395;BME280;5753;54.402;10.220;2023-03-05T09:25:55;101245.69;;;11.01;35.84
11395;BME280;5753;54.402;10.220;2023-03-05T09:28:21;101232.94;;;12.03;36.54
11395;BME280;5753;54.402;10.220;2023-03-05T09:30:47;101244.47;;;11.73;35.85
11395;BME280;5753;54.402;10.220;2023-03-05T09:33:13;101236.16;;;10.58;36.20
11395;BME280;5753;54.402;10.220;2023-03-05T09:35:39;101236.38;;;12.59;34.75
11395;BME280;5753;54.402;10.220;2023-03-05T09:38:06;101223.59;;;12.09;34.18
11395;BME280;5753;54.402;10.220;2023-03-05T09:40:58;101229.56;;;12.07;34.38
11395;BME280;5753;54.402;10.220;2023-03-05T09:52:22;101225.22;;;14.19;33.11
11395;BME280;5753;54.402;10.220;2023-03-05T09:54:56;101234.97;;;11.25;36.12
11395;BME280;5753;54.402;10.220;2023-03-05T09:57:35;101225.50;;;12.22;34.43
11395;BME280;5753;54.402;10.220;2023-03-05T10:02:52;101221.28;;;12.88;32.94
11395;BME280;5753;54.402;10.220;2023-03-05T10:05:25;101213.13;;;12.02;33.51
11395;BME280;5753;54.402;10.220;2023-03-05T10:07:58;101224.31;;;10.66;36.24
11395;BME280;5753;54.402;10.220;2023-03-05T10:10:37;101215.16;;;12.81;33.67
11395;BME280;5753;54.402;10.220;2023-03-05T10:13:27;101217.25;;;13.13;32.89
11395;BME280;5753;54.402;10.220;2023-03-05T10:19:11;101209.81;;;12.71;33.03
11395;BME280;5753;54.402;10.220;2023-03-05T10:21:42;101206.59;;;12.87;32.61
11395;BME280;5753;54.402;10.220;2023-03-05T10:24:22;101213.25;;;12.09;33.51
11395;BME280;5753;54.402;10.220;2023-03-05T10:26:57;101214.50;;;12.34;34.18
11395;BME280;5753;54.402;10.220;2023-03-05T10:32:24;101202.63;;;14.06;31.33
11395;BME280;5753;54.402;10.220;2023-03-05T10:35:07;101204.25;;;12.40;34.07
11395;BME280;5753;54.402;10.220;2023-03-05T10:40:38;101198.72;;;13.52;31.92
11395;BME280;5753;54.402;10.220;2023-03-05T10:43:35;101187.34;;;13.38;32.45
11395;BME280;5753;54.402;10.220;2023-03-05T10:46:05;101180.28;;;12.52;32.43
11395;BME280;5753;54.402;10.220;2023-03-05T10:48:51;101184.88;;;13.48;31.00
11395;BME280;5753;54.402;10.220;2023-03-05T10:51:30;101172.44;;;14.12;31.57
11395;BME280;5753;54.402;10.220;2023-03-05T10:56:45;101169.69;;;13.03;31.87
11395;BME280;5753;54.402;10.220;2023-03-05T10:59:12;101168.78;;;12.98;32.96
11395;BME280;5753;54.402;10.220;2023-03-05T11:01:38;101168.06;;;14.07;31.22
11395;BME280;5753;54.402;10.220;2023-03-05T11:04:06;101168.47;;;14.69;29.69
11395;BME280;5753;54.402;10.220;2023-03-05T11:14:40;101160.19;;;12.33;31.30
11395;BME280;5753;54.402;10.220;2023-03-05T11:17:28;101162.22;;;13.25;31.35
11395;BME280;5753;54.402;10.220;2023-03-05T11:19:56;101162.41;;;13.46;32.63
11395;BME280;5753;54.402;10.220;2023-03-05T11:22:24;101162.53;;;12.17;34.20
11395;BME280;5753;54.402;10.220;2023-03-05T11:25:13;101157.97;;;13.34;31.88
11395;BME280;5753;54.402;10.220;2023-03-05T11:27:47;101154.41;;;13.23;31.13
11395;BME280;5753;54.402;10.220;2023-03-05T11:35:38;101144.13;;;13.28;31.46
11395;BME280;5753;54.402;10.220;2023-03-05T11:38:10;101142.59;;;12.74;31.96
11395;BME280;5753;54.402;10.220;2023-03-05T11:40:40;101144.78;;;11.81;31.80
11395;BME280;5753;54.402;10.220;2023-03-05T11:43:08;101133.75;;;13.26;29.79
11395;BME280;5753;54.402;10.220;2023-03-05T11:45:37;101137.19;;;13.25;30.94
11395;BME280;5753;54.402;10.220;2023-03-05T11:48:14;101122.69;;;13.44;31.17
11395;BME280;5753;54.402;10.220;2023-03-05T11:50:46;101126.16;;;13.46;31.30
11395;BME280;5753;54.402;10.220;2023-03-05T11:53:24;101120.69;;;14.26;30.37
11395;BME280;5753;54.402;10.220;2023-03-05T11:59:10;101120.72;;;14.31;30.55
11395;BME280;5753;54.402;10.220;2023-03-05T12:01:46;101115.56;;;13.21;32.28
11395;BME280;5753;54.402;10.220;2023-03-05T12:04:13;101112.69;;;13.93;31.50
11395;BME280;5753;54.402;10.220;2023-03-05T12:06:44;101115.94;;;13.67;31.55
11395;BME280;5753;54.402;10.220;2023-03-05T12:18:06;101094.03;;;14.53;30.44
11395;BME280;5753;54.402;10.220;2023-03-05T12:23:20;101084.81;;;13.58;30.36
11395;BME280;5753;54.402;10.220;2023-03-05T12:25:54;101082.19;;;13.53;30.24
11395;BME280;5753;54.402;10.220;2023-03-05T12:33:31;101085.31;;;11.25;34.22
11395;BME280;5753;54.402;10.220;2023-03-05T12:38:51;101091.72;;;12.02;35.02
11395;BME280;5753;54.402;10.220;2023-03-05T12:46:38;101110.59;;;9.07;46.13
11395;BME280;5753;54.402;10.220;2023-03-05T12:51:49;101105.53;;;9.44;48.99
11395;BME280;5753;54.402;10.220;2023-03-05T12:56:49;101101.22;;;10.56;47.17
11395;BME280;5753;54.402;10.220;2023-03-05T12:59:20;101099.22;;;10.87;46.81
11395;BME280;5753;54.402;10.220;2023-03-05T13:02:00;101094.03;;;11.33;45.98
11395;BME280;5753;54.402;10.220;2023-03-05T13:04:30;101085.34;;;11.28;46.14
11395;BME280;5753;54.402;10.220;2023-03-05T13:07:15;101079.44;;;10.86;46.44
11395;BME280;5753;54.402;10.220;2023-03-05T13:09:51;101076.09;;;12.62;44.30
11395;BME280;5753;54.402;10.220;2023-03-05T13:12:18;101052.53;;;13.18;39.55
11395;BME280;5753;54.402;10.220;2023-03-05T13:15:05;101055.63;;;12.80;41.91
11395;BME280;5753;54.402;10.220;2023-03-05T13:17:35;101051.09;;;13.53;40.62
11395;BME280;5753;54.402;10.220;2023-03-05T13:20:41;101049.19;;;15.33;37.16
11395;BME280;5753;54.402;10.220;2023-03-05T13:28:34;101039.56;;;14.52;37.10
11395;BME280;5753;54.402;10.220;2023-03-05T13:33:37;101031.34;;;13.69;36.82
11395;BME280;5753;54.402;10.220;2023-03-05T13:36:05;101035.75;;;11.45;39.84
11395;BME280;5753;54.402;10.220;2023-03-05T13:38:44;101021.63;;;12.44;37.44
11395;BME280;5753;54.402;10.220;2023-03-05T13:43:57;101015.38;;;11.63;38.53
11395;BME280;5753;54.402;10.220;2023-03-05T13:46:41;101008.56;;;12.33;37.58
11395;BME280;5753;54.402;10.220;2023-03-05T13:51:56;101005.28;;;13.39;35.00
11395;BME280;5753;54.402;10.220;2023-03-05T13:54:24;101001.94;;;11.84;37.72
11395;BME280;5753;54.402;10.220;2023-03-05T13:57:03;100998.59;;;13.74;33.94
11395;BME280;5753;54.402;10.220;2023-03-05T13:59:32;100999.22;;;12.44;36.16
11395;BME280;5753;54.402;10.220;2023-03-05T14:02:18;101000.19;;;13.54;34.84
11395;BME280;5753;54.402;10.220;2023-03-05T14:04:46;100988.63;;;13.14;35.85
11395;BME280;5753;54.402;10.220;2023-03-05T14:07:37;100992.47;;;12.60;35.88
11395;BME280;5753;54.402;10.220;2023-03-05T14:10:26;100986.41;;;13.60;35.23
11395;BME280;5753;54.402;10.220;2023-03-05T14:12:54;100979.09;;;14.82;34.04
11395;BME280;5753;54.402;10.220;2023-03-05T14:17:58;100976.56;;;13.16;33.29
11395;BME280;5753;54.402;10.220;2023-03-05T14:20:32;100968.59;;;14.34;31.41
11395;BME280;5753;54.402;10.220;2023-03-05T14:23:00;100963.81;;;13.33;33.87
11395;BME280;5753;54.402;10.220;2023-03-05T14:27:59;100968.41;;;13.85;32.60
11395;BME280;5753;54.402;10.220;2023-03-05T14:30:26;100968.63;;;12.05;35.23
11395;BME280;5753;54.402;10.220;2023-03-05T14:32:54;100966.88;;;12.86;33.09
11395;BME280;5753;54.402;10.220;2023-03-05T14:35:23;100957.47;;;12.96;32.81
11395;BME280;5753;54.402;10.220;2023-03-05T14:37:51;100955.22;;;11.70;34.14
11395;BME280;5753;54.402;10.220;2023-03-05T14:40:26;100948.69;;;14.27;32.45
11395;BME280;5753;54.402;10.220;2023-03-05T14:43:01;100947.59;;;13.67;32.98
11395;BME280;5753;54.402;10.220;2023-03-05T14:45:32;100945.13;;;13.89;32.13
11395;BME280;5753;54.402;10.220;2023-03-05T14:48:00;100942.13;;;13.21;32.41